createdAt,value
2018-11-20T00:02:02.622Z,0.14
2018-11-20T00:04:52.653Z,0.12
2018-11-20T00:07:42.629Z,0.05
2018-11-20T00:10:32.843Z,-0.03
2018-11-20T00:13:41.796Z,-0.01
2018-11-20T00:16:31.916Z,-0.02
2018-11-20T00:19:21.962Z,-0.05
2018-11-20T00:22:12.062Z,-0.08
2018-11-20T00:25:02.065Z,-0.14
2018-11-20T00:28:10.972Z,-0.04
2018-11-20T00:31:01.234Z,0.01
2018-11-20T00:33:51.190Z,-0.03
2018-11-20T00:36:41.184Z,-0.08
2018-11-20T00:39:31.227Z,-0.20
2018-11-20T00:42:21.206Z,-0.18
2018-11-20T00:45:11.305Z,-0.21
2018-11-20T00:48:01.267Z,-0.22
2018-11-20T00:50:51.416Z,-0.14
2018-11-20T00:53:41.387Z,-0.15
2018-11-20T00:56:54.231Z,-0.15
2018-11-20T00:59:45.494Z,-0.13
2018-11-20T01:02:35.602Z,-0.20
2018-11-20T01:05:16.527Z,-0.27
2018-11-20T01:08:06.509Z,-0.26
2018-11-20T01:10:56.507Z,-0.15
2018-11-20T01:13:46.647Z,-0.28
2018-11-20T01:16:36.613Z,-0.36
2018-11-20T01:19:26.561Z,-0.39
2018-11-20T01:22:16.672Z,-0.23
2018-11-20T01:25:06.759Z,-0.17
2018-11-20T01:27:51.748Z,-0.21
2018-11-20T01:31:00.625Z,-0.21
2018-11-20T01:33:50.690Z,-0.24
2018-11-20T01:36:40.845Z,-0.26
2018-11-20T01:39:30.923Z,-0.21
2018-11-20T01:42:20.989Z,-0.12
2018-11-20T01:45:11.101Z,-0.15
2018-11-20T01:47:54.451Z,-0.20
2018-11-20T01:51:03.374Z,-0.32
2018-11-20T01:57:03.621Z,-0.30
2018-11-20T01:59:53.723Z,-0.24
2018-11-20T02:02:34.551Z,-0.23
2018-11-20T02:05:25.259Z,-0.23
2018-11-20T02:08:15.357Z,-0.28
2018-11-20T02:11:05.493Z,-0.32
2018-11-20T02:14:22.280Z,-0.34
2018-11-20T02:17:14.795Z,-0.39
2018-11-20T02:20:04.723Z,-0.31
2018-11-20T02:22:54.761Z,-0.33
2018-11-20T02:26:03.681Z,-0.36
2018-11-20T02:28:53.807Z,-0.35
2018-11-20T02:31:43.837Z,-0.35
2018-11-20T02:34:33.995Z,-0.36
2018-11-20T02:37:24.025Z,-0.37
2018-11-20T02:40:14.093Z,-0.25
2018-11-20T02:43:04.232Z,-0.19
2018-11-20T02:45:47.813Z,-0.20
2018-11-20T02:48:37.939Z,-0.21
2018-11-20T02:51:46.874Z,-0.26
2018-11-20T02:54:36.879Z,-0.25
2018-11-20T02:57:27.007Z,-0.24
2018-11-20T03:00:17.055Z,-0.34
2018-11-20T03:03:07.147Z,-0.33
2018-11-20T03:05:57.188Z,-0.29
2018-11-20T03:08:47.294Z,-0.28
2018-11-20T03:11:37.381Z,-0.24
2018-11-20T03:14:27.385Z,-0.21
2018-11-20T03:17:17.347Z,-0.12
2018-11-20T03:20:07.415Z,-0.06
2018-11-20T03:23:16.289Z,-0.03
2018-11-20T03:26:06.445Z,0.00
2018-11-20T03:29:16.957Z,0.01
2018-11-20T03:32:00.272Z,0.00
2018-11-20T03:34:50.238Z,0.02
2018-11-20T03:37:59.167Z,0.01
2018-11-20T03:40:49.257Z,-0.01
2018-11-20T03:43:39.347Z,-0.01
2018-11-20T03:46:29.324Z,0.09
2018-11-20T03:49:38.238Z,0.12
2018-11-20T03:52:28.154Z,0.11
2018-11-20T03:55:37.081Z,0.10
2018-11-20T03:58:27.060Z,0.09
2018-11-20T04:01:17.135Z,0.18
2018-11-20T04:04:07.268Z,0.24
2018-11-20T04:06:57.353Z,0.39
2018-11-20T04:09:47.391Z,0.40
2018-11-20T04:12:37.490Z,0.41
2018-11-20T04:15:46.464Z,0.46
2018-11-20T04:18:36.752Z,0.46
2018-11-20T04:21:26.698Z,0.46
2018-11-20T04:24:16.892Z,0.44
2018-11-20T04:27:06.966Z,0.50
2018-11-20T04:30:15.909Z,0.50
2018-11-20T04:33:43.782Z,0.51
2018-11-20T04:36:33.860Z,0.56
2018-11-20T04:39:20.124Z,0.61
2018-11-20T04:42:10.144Z,0.64
2018-11-20T04:45:00.286Z,0.67
2018-11-20T04:47:50.280Z,0.67
2018-11-20T04:50:40.230Z,0.68
2018-11-20T04:53:24.396Z,0.67
2018-11-20T04:56:14.550Z,0.69
2018-11-20T04:59:04.655Z,0.68
2018-11-20T05:01:54.642Z,0.72
2018-11-20T05:04:40.260Z,0.78
2018-11-20T05:07:30.402Z,0.81
2018-11-20T05:10:20.455Z,0.87
2018-11-20T05:13:13.427Z,0.91
2018-11-20T05:16:22.331Z,0.95
2018-11-20T05:22:21.752Z,1.07
2018-11-20T05:25:11.818Z,1.15
2018-11-20T05:28:02.029Z,1.14
2018-11-20T05:30:52.002Z,1.13
2018-11-20T05:33:42.076Z,1.18
2018-11-20T05:36:32.146Z,1.26
2018-11-20T05:39:41.094Z,1.31
2018-11-20T05:42:31.136Z,1.33
2018-11-20T05:45:21.230Z,1.35
2018-11-20T05:48:11.161Z,1.41
2018-11-20T05:51:01.167Z,1.44
2018-11-20T05:53:51.334Z,1.50
2018-11-20T05:56:41.450Z,1.55
2018-11-20T05:59:31.506Z,1.56
2018-11-20T06:02:21.725Z,1.61
2018-11-20T06:05:11.779Z,1.64
2018-11-20T06:08:01.767Z,1.67
2018-11-20T06:10:43.501Z,1.73
2018-11-20T06:13:33.586Z,1.72
2018-11-20T06:16:30.901Z,1.72
2018-11-20T06:19:16.980Z,1.78
2018-11-20T06:22:07.166Z,1.83
2018-11-20T06:25:16.117Z,1.86
2018-11-20T06:28:06.273Z,1.88
2018-11-20T06:30:56.461Z,1.92
2018-11-20T06:33:46.591Z,2.03
2018-11-20T06:36:36.564Z,2.11
2018-11-20T06:39:31.850Z,2.17
2018-11-20T06:42:22.100Z,2.22
2018-11-20T06:45:12.264Z,2.25
2018-11-20T06:48:21.223Z,2.31
2018-11-20T06:51:11.414Z,2.33
2018-11-20T06:54:01.415Z,2.35
2018-11-20T06:56:51.462Z,2.35
2018-11-20T06:59:41.537Z,2.39
2018-11-20T07:02:31.535Z,2.38
2018-11-20T07:05:21.549Z,2.43
2018-11-20T07:08:11.568Z,2.47
2018-11-20T07:10:52.555Z,2.47
2018-11-20T07:13:47.491Z,2.51
2018-11-20T07:16:57.102Z,2.54
2018-11-20T07:19:49.566Z,2.59
2018-11-20T07:22:39.760Z,2.64
2018-11-20T07:25:29.774Z,2.66
2018-11-20T07:28:19.869Z,2.71
2018-11-20T07:34:44.780Z,2.76
2018-11-20T07:37:34.884Z,2.79
2018-11-20T07:40:25.952Z,2.82
2018-11-20T07:43:16.071Z,2.82
2018-11-20T07:46:24.958Z,2.84
2018-11-20T07:49:09.574Z,2.87
2018-11-20T07:51:59.573Z,2.87
2018-11-20T07:55:08.518Z,2.84
2018-11-20T07:57:51.986Z,2.71
2018-11-20T08:00:42.021Z,2.49
2018-11-20T08:03:32.036Z,2.35
2018-11-20T08:06:22.179Z,2.29
2018-11-20T08:09:31.056Z,2.23
2018-11-20T08:12:21.233Z,2.05
2018-11-20T08:15:30.225Z,1.84
2018-11-20T08:18:20.154Z,1.72
2018-11-20T08:20:59.399Z,1.60
2018-11-20T08:23:49.495Z,1.51
2018-11-20T08:26:58.548Z,1.44
2018-11-20T08:29:48.590Z,1.43
2018-11-20T08:32:57.409Z,1.40
2018-11-20T08:35:47.564Z,1.43
2018-11-20T08:38:40.426Z,1.45
2018-11-20T08:41:30.498Z,1.41
2018-11-20T08:44:20.543Z,1.37
2018-11-20T08:47:10.643Z,1.36
2018-11-20T08:50:00.814Z,1.35
2018-11-20T08:52:50.767Z,1.22
2018-11-20T08:55:40.780Z,1.28
2018-11-20T08:58:30.868Z,1.24
2018-11-20T09:01:21.104Z,1.21
2018-11-20T09:04:11.168Z,1.24
2018-11-20T09:07:01.235Z,1.30
2018-11-20T09:09:51.274Z,1.43
2018-11-20T09:12:41.324Z,1.53
2018-11-20T09:15:50.242Z,1.68
2018-11-20T09:18:40.454Z,1.87
2018-11-20T09:21:30.457Z,2.01
2018-11-20T09:24:20.488Z,2.12
2018-11-20T09:27:10.494Z,2.22
2018-11-20T09:30:00.529Z,2.30
2018-11-20T09:32:53.562Z,2.39
2018-11-20T09:35:43.702Z,2.57
2018-11-20T09:38:33.580Z,2.80
2018-11-20T09:41:23.690Z,2.84
2018-11-20T09:44:51.471Z,2.95
2018-11-20T09:47:41.487Z,3.28
2018-11-20T09:50:33.220Z,3.51
2018-11-20T09:53:23.275Z,3.36
2018-11-20T09:56:14.254Z,3.29
2018-11-20T09:59:04.469Z,3.34
2018-11-20T10:01:54.500Z,3.39
2018-11-20T10:05:03.384Z,3.43
2018-11-20T10:07:53.498Z,3.27
2018-11-20T10:10:43.561Z,3.18
2018-11-20T10:13:52.444Z,3.16
2018-11-20T10:17:01.320Z,3.12
2018-11-20T10:19:51.368Z,3.05
2018-11-20T10:22:41.445Z,3.08
2018-11-20T10:25:31.588Z,3.06
2018-11-20T10:28:21.613Z,3.08
2018-11-20T10:31:11.659Z,3.04
2018-11-20T10:34:01.655Z,3.05
2018-11-20T10:36:51.732Z,2.99
2018-11-20T10:39:41.809Z,2.99
2018-11-20T10:42:31.925Z,2.98
2018-11-20T10:45:22.011Z,3.01
2018-11-20T10:48:31.766Z,3.03
2018-11-20T10:51:21.747Z,3.08
2018-11-20T10:54:11.764Z,3.08
2018-11-20T10:57:20.660Z,3.08
2018-11-20T11:00:29.535Z,3.11
2018-11-20T11:03:19.513Z,3.18
2018-11-20T11:06:09.630Z,3.19
2018-11-20T11:09:18.490Z,3.16
2018-11-20T11:12:08.847Z,3.17
2018-11-20T11:14:58.865Z,3.27
2018-11-20T11:17:48.835Z,3.39
2018-11-20T11:20:57.935Z,3.48
2018-11-20T11:23:47.870Z,3.52
2018-11-20T11:26:56.746Z,3.58
2018-11-20T11:30:05.656Z,3.56
2018-11-20T11:32:55.931Z,3.59
2018-11-20T11:36:04.775Z,3.67
2018-11-20T11:38:54.849Z,3.63
2018-11-20T11:41:45.060Z,3.74
2018-11-20T11:44:35.069Z,3.66
2018-11-20T11:47:25.347Z,3.66
2018-11-20T11:50:15.396Z,3.67
2018-11-20T11:53:05.506Z,3.59
2018-11-20T11:55:55.504Z,3.55
2018-11-20T11:58:45.489Z,3.43
2018-11-20T12:04:24.791Z,3.47
2018-11-20T12:07:33.736Z,3.56
2018-11-20T12:10:24.051Z,3.44
2018-11-20T12:16:03.350Z,3.56
2018-11-20T12:18:54.328Z,3.63
2018-11-20T12:21:43.387Z,3.62
2018-11-20T12:24:33.576Z,3.72
2018-11-20T12:27:23.666Z,3.72
2018-11-20T12:30:15.619Z,3.73
2018-11-20T12:33:03.713Z,3.77
2018-11-20T12:35:54.584Z,3.83
2018-11-20T12:38:43.908Z,3.83
2018-11-20T12:41:34.901Z,3.84
2018-11-20T12:47:34.578Z,3.88
2018-11-20T12:50:26.240Z,3.86
2018-11-20T12:53:15.102Z,3.93
2018-11-20T12:56:05.234Z,4.01
2018-11-20T12:59:06.991Z,4.02
2018-11-20T13:02:09.248Z,3.97
2018-11-20T13:04:55.941Z,4.07
2018-11-20T13:07:46.112Z,3.93
2018-11-20T13:10:36.112Z,3.96
2018-11-20T13:13:26.237Z,4.03
2018-11-20T13:16:16.300Z,4.03
2018-11-20T13:19:06.421Z,3.96
2018-11-20T13:21:56.472Z,4.01
2018-11-20T13:24:46.552Z,4.08
2018-11-20T13:27:36.638Z,4.13
2018-11-20T13:30:45.645Z,4.10
2018-11-20T13:33:35.714Z,4.16
2018-11-20T13:36:25.892Z,4.21
2018-11-20T13:39:15.823Z,4.20
2018-11-20T13:41:52.756Z,4.17
2018-11-20T13:44:45.283Z,4.21
2018-11-20T13:47:35.373Z,4.14
2018-11-20T13:50:26.443Z,4.06
2018-11-20T13:53:35.396Z,4.15
2018-11-20T13:56:25.777Z,4.15
2018-11-20T13:59:34.709Z,4.16
2018-11-20T14:02:43.912Z,4.12
2018-11-20T14:05:34.052Z,4.09
2018-11-20T14:08:25.325Z,4.05
2018-11-20T14:11:06.942Z,4.06
2018-11-20T14:13:56.923Z,4.04
2018-11-20T14:16:46.965Z,4.00
2018-11-20T14:19:37.031Z,4.02
2018-11-20T14:22:27.324Z,4.02
2018-11-20T14:25:17.424Z,3.99
2018-11-20T14:28:07.593Z,3.99
2018-11-20T14:31:06.843Z,3.96
2018-11-20T14:33:56.936Z,3.96
2018-11-20T14:36:47.054Z,3.93
2018-11-20T14:39:39.624Z,3.91
2018-11-20T14:42:29.703Z,3.84
2018-11-20T14:45:38.103Z,3.86
2018-11-20T14:48:23.460Z,3.78
2018-11-20T14:51:13.501Z,3.76
2018-11-20T14:54:03.467Z,3.72
2018-11-20T14:56:53.573Z,3.72
2018-11-20T14:59:36.997Z,3.68
2018-11-20T15:02:27.079Z,3.64
2018-11-20T15:05:17.151Z,3.66
2018-11-20T15:08:07.253Z,3.62
2018-11-20T15:10:57.287Z,3.59
2018-11-20T15:13:47.577Z,3.61
2018-11-20T15:16:56.417Z,3.61
2018-11-20T15:19:46.443Z,3.55
2018-11-20T15:22:36.503Z,3.56
2018-11-20T15:25:45.375Z,3.57
2018-11-20T15:28:35.374Z,3.54
2018-11-20T15:31:23.737Z,3.56
2018-11-20T15:34:32.664Z,3.52
2018-11-20T15:37:22.839Z,3.53
2018-11-20T15:40:31.150Z,3.48
2018-11-20T15:43:41.536Z,3.41
2018-11-20T15:46:50.374Z,3.38
2018-11-20T15:49:59.222Z,3.31
2018-11-20T15:52:58.318Z,3.14
2018-11-20T15:56:07.177Z,3.04
2018-11-20T15:58:57.272Z,3.04
2018-11-20T16:01:47.368Z,2.98
2018-11-20T16:04:37.447Z,2.93
2018-11-20T16:07:27.473Z,2.83
2018-11-20T16:10:17.506Z,2.69
2018-11-20T16:13:04.710Z,2.57
2018-11-20T16:16:13.964Z,2.44
2018-11-20T16:19:04.046Z,2.33
2018-11-20T16:22:13.730Z,2.20
2018-11-20T16:25:03.837Z,2.12
2018-11-20T16:27:54.000Z,2.11
2018-11-20T16:31:02.894Z,2.03
2018-11-20T16:34:11.895Z,1.91
2018-11-20T16:36:57.778Z,1.86
2018-11-20T16:39:47.916Z,1.76
2018-11-20T16:42:38.029Z,1.69
2018-11-20T16:45:28.603Z,1.69
2018-11-20T16:48:26.203Z,1.61
2018-11-20T16:51:16.236Z,1.54
2018-11-20T16:54:29.857Z,1.46
2018-11-20T16:57:40.170Z,1.48
2018-11-20T17:00:50.305Z,1.37
2018-11-20T17:03:40.285Z,1.37
2018-11-20T17:06:49.446Z,1.34
2018-11-20T17:09:39.539Z,1.37
2018-11-20T17:12:29.564Z,1.24
2018-11-20T17:15:19.708Z,1.14
2018-11-20T17:18:09.788Z,1.08
2018-11-20T17:21:01.664Z,1.08
2018-11-20T17:23:51.826Z,1.08
2018-11-20T17:26:41.935Z,1.00
2018-11-20T17:29:31.943Z,0.95
2018-11-20T17:32:21.986Z,0.99
2018-11-20T17:35:22.632Z,0.93
2018-11-20T17:38:14.196Z,0.89
2018-11-20T17:41:04.280Z,0.86
2018-11-20T17:43:54.521Z,0.87
2018-11-20T17:46:44.688Z,0.88
2018-11-20T17:49:34.911Z,0.78
2018-11-20T17:52:25.128Z,0.72
2018-11-20T17:55:15.251Z,0.58
2018-11-20T17:58:05.347Z,0.45
2018-11-20T18:01:01.646Z,0.31
2018-11-20T18:03:51.737Z,0.27
2018-11-20T18:06:52.011Z,0.29
2018-11-20T18:09:42.153Z,0.28
2018-11-20T18:12:32.229Z,0.27
2018-11-20T18:15:20.891Z,0.20
2018-11-20T18:18:09.405Z,0.17
2018-11-20T18:20:59.430Z,0.13
2018-11-20T18:24:08.515Z,0.09
2018-11-20T18:26:58.696Z,0.01
2018-11-20T18:30:04.837Z,-0.10
2018-11-20T18:33:13.798Z,-0.13
2018-11-20T18:36:04.034Z,-0.19
2018-11-20T18:38:54.067Z,-0.23
2018-11-20T18:41:47.022Z,-0.27
2018-11-20T18:44:37.069Z,-0.36
2018-11-20T18:47:27.408Z,-0.29
2018-11-20T18:50:17.422Z,-0.27
2018-11-20T18:53:07.551Z,-0.30
2018-11-20T18:55:58.086Z,-0.28
2018-11-20T18:58:48.260Z,-0.22
2018-11-20T19:01:57.141Z,-0.25
2018-11-20T19:05:06.147Z,-0.28
2018-11-20T19:07:53.933Z,-0.27
2018-11-20T19:10:43.950Z,-0.40
2018-11-20T19:13:34.067Z,-0.52
2018-11-20T19:16:24.640Z,-0.59
2018-11-20T19:19:33.644Z,-0.58
2018-11-20T19:22:42.596Z,-0.63
2018-11-20T19:25:51.584Z,-0.70
2018-11-20T19:28:41.641Z,-0.76
2018-11-20T19:31:31.759Z,-0.85
2018-11-20T19:34:13.195Z,-0.88
2018-11-20T19:37:03.328Z,-0.94
2018-11-20T19:39:52.082Z,-1.11
2018-11-20T19:42:42.113Z,-1.13
2018-11-20T19:45:51.150Z,-1.01
2018-11-20T19:48:41.388Z,-0.89
2018-11-20T19:51:50.300Z,-0.87
2018-11-20T19:54:43.310Z,-0.96
2018-11-20T19:57:34.352Z,-1.11
2018-11-20T20:00:24.529Z,-1.24
2018-11-20T20:03:12.947Z,-1.26
2018-11-20T20:06:08.682Z,-1.25
2018-11-20T20:09:17.676Z,-1.10
2018-11-20T20:12:07.761Z,-1.07
2018-11-20T20:14:57.988Z,-1.10
2018-11-20T20:17:48.225Z,-1.08
2018-11-20T20:20:38.850Z,-1.12
2018-11-20T20:23:28.962Z,-1.20
2018-11-20T20:26:37.859Z,-1.22
2018-11-20T20:29:27.960Z,-1.25
2018-11-20T20:32:18.060Z,-1.33
2018-11-20T20:35:08.159Z,-1.35
2018-11-20T20:37:58.344Z,-1.41
2018-11-20T20:40:48.331Z,-1.38
2018-11-20T20:43:38.411Z,-1.36
2018-11-20T20:46:28.428Z,-1.35
2018-11-20T20:49:18.481Z,-1.38
2018-11-20T20:52:08.572Z,-1.41
2018-11-20T20:54:58.694Z,-1.44
2018-11-20T20:57:48.826Z,-1.54
2018-11-20T21:00:38.956Z,-1.59
2018-11-20T21:03:28.986Z,-1.68
2018-11-20T21:06:19.137Z,-1.79
2018-11-20T21:12:18.543Z,-1.75
2018-11-20T21:15:08.593Z,-1.59
2018-11-20T21:17:58.815Z,-1.47
2018-11-20T21:20:48.922Z,-1.45
2018-11-20T21:23:39.105Z,-1.42
2018-11-20T21:26:23.762Z,-1.51
2018-11-20T21:29:13.888Z,-1.56
2018-11-20T21:32:03.900Z,-1.66
2018-11-20T21:34:55.245Z,-1.64
2018-11-20T21:37:41.929Z,-1.69
2018-11-20T21:40:32.057Z,-1.76
2018-11-20T21:43:22.095Z,-1.83
2018-11-20T21:46:31.092Z,-1.90
2018-11-20T21:49:21.229Z,-1.94
2018-11-20T21:52:30.240Z,-1.72
2018-11-20T21:55:20.338Z,-1.64
2018-11-20T21:58:29.280Z,-1.66
2018-11-20T22:01:39.634Z,-1.77
2018-11-20T22:04:29.775Z,-1.86
2018-11-20T22:07:19.900Z,-1.95
2018-11-20T22:10:13.382Z,-1.92
2018-11-20T22:13:00.035Z,-1.94
2018-11-20T22:15:50.097Z,-2.03
2018-11-20T22:18:40.191Z,-1.94
2018-11-20T22:21:30.158Z,-1.77
2018-11-20T22:24:28.823Z,-1.76
2018-11-20T22:27:19.049Z,-1.86
2018-11-20T22:30:09.057Z,-2.01
2018-11-20T22:32:59.123Z,-2.09
2018-11-20T22:35:49.267Z,-2.18
2018-11-20T22:38:39.414Z,-2.29
2018-11-20T22:41:29.624Z,-2.37
2018-11-20T22:44:19.650Z,-2.38
2018-11-20T22:47:09.805Z,-2.36
2018-11-20T22:50:01.024Z,-2.43
2018-11-20T22:53:10.086Z,-2.53
2018-11-20T22:56:18.997Z,-2.35
2018-11-20T22:59:09.013Z,-2.35
2018-11-20T23:01:59.133Z,-2.33
2018-11-20T23:05:07.093Z,-2.47
2018-11-20T23:07:57.118Z,-2.56
2018-11-20T23:10:29.524Z,-2.68
2018-11-20T23:13:01.008Z,-2.74
2018-11-20T23:15:32.487Z,-2.76
2018-11-20T23:18:04.120Z,-2.80
2018-11-20T23:20:35.793Z,-2.81
2018-11-20T23:23:07.303Z,-2.78
2018-11-20T23:25:38.854Z,-2.73
2018-11-20T23:28:10.296Z,-2.77
2018-11-20T23:30:41.827Z,-2.74
2018-11-20T23:33:13.399Z,-2.73
2018-11-20T23:35:44.795Z,-2.75
2018-11-20T23:38:35.164Z,-2.73
2018-11-20T23:41:06.665Z,-2.71
2018-11-20T23:43:38.235Z,-2.78
2018-11-20T23:46:10.100Z,-2.80
2018-11-20T23:48:41.613Z,-2.87
2018-11-20T23:51:13.063Z,-2.98
2018-11-20T23:54:03.377Z,-3.09
2018-11-20T23:56:34.823Z,-3.09
2018-11-20T23:59:06.263Z,-3.03
